Time;durP1;ratioP1;P1;durP2;ratioP2;P2;SDS_P1;SDS_P2;PMS_P1;PMS_P2;Temp;Humidity;BMP_temperature;BMP_pressure;BME280_temperature;BME280_humidity;BME280_pressure;Samples;Min_cycle;Max_cycle;Signal;HPM_P1;HPM_P2
2023/09/27 00:00:30;;;;;;;0.55;0.55;;;14.00;99.90;;;;;;5095389;28;20044;-73
2023/09/27 00:02:57;;;;;;;0.57;0.57;;;13.90;99.90;;;;;;5095294;28;20119;-72
2023/09/27 00:05:23;;;;;;;0.57;0.57;;;13.90;99.90;;;;;;5095298;28;20429;-74
2023/09/27 00:07:51;;;;;;;0.63;0.63;;;13.90;99.90;;;;;;5095163;28;20064;-73
2023/09/27 00:10:17;;;;;;;0.47;0.47;;;13.90;99.90;;;;;;5095106;28;20086;-74
2023/09/27 00:12:45;;;;;;;0.63;0.63;;;13.90;99.90;;;;;;5095003;28;20036;-74
2023/09/27 00:15:11;;;;;;;0.77;0.63;;;13.90;99.90;;;;;;5094692;28;20501;-76
2023/09/27 00:17:37;;;;;;;1.15;0.90;;;13.80;99.90;;;;;;5095029;28;20044;-74
2023/09/27 00:20:05;;;;;;;0.50;0.50;;;13.80;99.90;;;;;;5095059;28;20040;-73
2023/09/27 00:22:31;;;;;;;0.55;0.55;;;13.80;99.90;;;;;;5094641;28;20044;-75
2023/09/27 00:24:57;;;;;;;0.50;0.50;;;13.80;99.90;;;;;;5094859;28;20378;-74
2023/09/27 00:27:22;;;;;;;0.60;0.60;;;13.80;99.90;;;;;;5094649;28;20047;-75
2023/09/27 00:29:48;;;;;;;0.75;0.75;;;13.80;99.90;;;;;;5095178;28;20044;-74
2023/09/27 00:32:14;;;;;;;0.80;0.80;;;13.80;99.90;;;;;;5094733;28;20032;-74
2023/09/27 00:34:39;;;;;;;0.83;0.47;;;13.70;99.90;;;;;;5094929;28;20228;-75
2023/09/27 00:37:05;;;;;;;1.53;0.60;;;13.70;99.90;;;;;;5094718;28;20036;-74
2023/09/27 00:39:30;;;;;;;0.50;0.50;;;13.70;99.90;;;;;;5094493;28;20043;-74
2023/09/27 00:41:56;;;;;;;0.90;0.80;;;13.60;99.90;;;;;;5094556;28;20032;-74
2023/09/27 00:44:22;;;;;;;1.30;1.00;;;13.50;99.90;;;;;;5094892;28;20134;-74
2023/09/27 00:46:49;;;;;;;0.80;0.60;;;13.60;99.90;;;;;;5094450;28;20071;-75
2023/09/27 00:49:16;;;;;;;0.60;0.60;;;13.50;99.90;;;;;;5094519;28;20499;-73
2023/09/27 00:51:42;;;;;;;0.50;0.50;;;13.50;99.90;;;;;;5094449;28;20032;-73
2023/09/27 00:54:09;;;;;;;0.50;0.50;;;13.50;99.90;;;;;;5094336;28;20399;-75
2023/09/27 00:56:35;;;;;;;0.60;0.55;;;13.50;99.90;;;;;;5094349;28;20032;-76
2023/09/27 00:59:02;;;;;;;0.60;0.60;;;13.50;99.90;;;;;;5094194;28;20050;-73
2023/09/27 01:01:27;;;;;;;0.85;0.50;;;13.50;99.90;;;;;;5094266;28;20040;-75
2023/09/27 01:03:53;;;;;;;0.70;0.70;;;13.50;99.90;;;;;;5094206;28;20032;-74
2023/09/27 01:06:23;;;;;;;0.50;0.50;;;13.40;99.90;;;;;;5094172;28;20414;-74
2023/09/27 01:08:49;;;;;;;0.60;0.60;;;13.40;99.90;;;;;;5094080;28;20056;-75
2023/09/27 01:11:15;;;;;;;0.50;0.50;;;13.40;99.90;;;;;;5093962;28;20040;-74
2023/09/27 01:13:41;;;;;;;0.60;0.60;;;13.40;99.90;;;;;;5094027;28;20297;-75
2023/09/27 01:16:07;;;;;;;0.97;0.90;;;13.40;99.90;;;;;;5094105;28;20042;-72
2023/09/27 01:18:32;;;;;;;0.40;0.40;;;13.40;99.90;;;;;;5093959;28;20123;-74
2023/09/27 01:20:58;;;;;;;0.70;0.70;;;13.40;99.90;;;;;;5093927;28;20375;-74
2023/09/27 01:23:24;;;;;;;0.63;0.63;;;13.30;99.90;;;;;;5093936;28;20031;-76
2023/09/27 01:25:55;;;;;;;0.80;0.80;;;13.30;99.90;;;;;;5093738;28;20265;-73
2023/09/27 01:28:21;;;;;;;0.60;0.60;;;13.30;99.90;;;;;;5094261;28;20048;-75
2023/09/27 01:30:47;;;;;;;0.70;0.70;;;13.30;99.90;;;;;;5093732;28;20052;-73
2023/09/27 01:33:13;;;;;;;0.40;0.40;;;13.30;99.90;;;;;;5093473;28;20071;-74
2023/09/27 01:35:40;;;;;;;0.80;0.77;;;13.30;99.90;;;;;;5093841;28;20043;-74
2023/09/27 01:38:07;;;;;;;0.77;0.70;;;13.20;99.90;;;;;;5093644;28;20052;-75
2023/09/27 01:40:37;;;;;;;0.60;0.60;;;13.20;99.90;;;;;;5094100;28;20036;-74
2023/09/27 01:43:03;;;;;;;0.50;0.50;;;13.30;99.90;;;;;;5093649;28;20144;-75
2023/09/27 01:45:30;;;;;;;0.47;0.47;;;13.20;99.90;;;;;;5093679;28;20044;-75
2023/09/27 01:47:56;;;;;;;2.30;0.73;;;13.10;99.90;;;;;;5093782;28;20102;-74
2023/09/27 01:50:24;;;;;;;1.48;0.93;;;13.10;99.90;;;;;;5093599;28;20055;-74
2023/09/27 01:52:50;;;;;;;1.05;0.95;;;13.10;99.90;;;;;;5093483;28;20047;-75
2023/09/27 01:55:16;;;;;;;1.15;1.05;;;13.10;99.90;;;;;;5093590;28;20471;-73
2023/09/27 01:57:42;;;;;;;0.60;0.60;;;13.00;99.90;;;;;;5093868;28;20058;-75
2023/09/27 02:00:09;;;;;;;0.93;0.60;;;13.00;99.90;;;;;;5093561;28;20093;-74
2023/09/27 02:02:35;;;;;;;0.50;0.50;;;13.00;99.90;;;;;;5092327;28;20044;-75
2023/09/27 02:05:01;;;;;;;0.67;0.60;;;13.00;99.90;;;;;;5093523;28;20044;-75
2023/09/27 02:07:26;;;;;;;0.67;0.67;;;13.00;99.90;;;;;;5093172;28;20488;-72
2023/09/27 02:09:52;;;;;;;0.85;0.77;;;12.90;99.90;;;;;;5093584;28;20056;-73
2023/09/27 02:12:18;;;;;;;0.50;0.50;;;13.00;99.90;;;;;;5093872;28;20028;-74
2023/09/27 02:14:43;;;;;;;0.60;0.60;;;12.90;99.90;;;;;;5093671;28;20045;-74
2023/09/27 02:17:09;;;;;;;0.70;0.70;;;13.00;99.90;;;;;;5093517;28;20460;-73
2023/09/27 02:19:35;;;;;;;0.50;0.50;;;13.00;99.90;;;;;;5093349;28;20044;-74
2023/09/27 02:22:01;;;;;;;0.63;0.60;;;12.90;99.90;;;;;;5093286;28;20419;-73
2023/09/27 02:24:27;;;;;;;1.10;0.85;;;12.90;99.90;;;;;;5093047;28;20044;-73
2023/09/27 02:26:53;;;;;;;0.52;0.52;;;12.90;99.90;;;;;;5093637;28;20371;-74
2023/09/27 02:29:20;;;;;;;0.70;0.68;;;12.90;99.90;;;;;;5092119;28;20040;-73
2023/09/27 02:31:45;;;;;;;0.95;0.80;;;12.90;99.90;;;;;;5093198;28;20046;-73
2023/09/27 02:34:12;;;;;;;1.10;1.00;;;12.90;99.90;;;;;;5093122;28;20040;-74
2023/09/27 02:36:38;;;;;;;0.52;0.52;;;12.80;99.90;;;;;;5093787;28;20504;-73
2023/09/27 02:39:04;;;;;;;0.70;0.70;;;12.80;99.90;;;;;;5097014;28;20083;-74
2023/09/27 02:41:30;;;;;;;1.10;0.80;;;12.80;99.90;;;;;;5096923;28;20051;-73
2023/09/27 02:43:56;;;;;;;1.25;0.90;;;12.70;99.90;;;;;;5096963;28;20044;-73
2023/09/27 02:46:22;;;;;;;0.63;0.63;;;12.70;99.90;;;;;;5096897;28;20075;-74
2023/09/27 02:48:47;;;;;;;0.77;0.77;;;12.70;99.90;;;;;;5097135;28;20513;-73
2023/09/27 02:51:16;;;;;;;1.23;0.83;;;12.70;99.90;;;;;;5096707;28;20345;-74
2023/09/27 02:53:42;;;;;;;0.68;0.68;;;12.60;99.90;;;;;;5096648;28;20036;-74
2023/09/27 02:56:07;;;;;;;1.10;1.00;;;12.70;99.90;;;;;;5096693;28;20039;-74
2023/09/27 02:58:34;;;;;;;3.87;0.60;;;12.60;99.90;;;;;;5096749;28;20459;-73
2023/09/27 03:01:00;;;;;;;1.15;1.00;;;12.60;99.90;;;;;;5096583;28;20066;-73
2023/09/27 03:03:27;;;;;;;1.63;0.83;;;12.60;99.90;;;;;;5096313;28;20035;-73
2023/09/27 03:05:53;;;;;;;0.80;0.80;;;12.60;99.90;;;;;;5096377;28;20040;-75
2023/09/27 03:08:19;;;;;;;0.80;0.80;;;12.60;99.90;;;;;;5096006;28;20146;-73
2023/09/27 03:10:44;;;;;;;1.05;0.70;;;12.50;99.90;;;;;;5096347;28;20040;-72
2023/09/27 03:13:11;;;;;;;1.85;1.17;;;12.50;99.90;;;;;;5096328;28;20429;-73
2023/09/27 03:15:37;;;;;;;0.60;0.60;;;12.80;99.90;;;;;;5096077;28;20173;-74
2023/09/27 03:18:03;;;;;;;0.80;0.70;;;12.50;99.90;;;;;;5096267;28;20542;-73
2023/09/27 03:20:30;;;;;;;0.75;0.68;;;12.50;99.90;;;;;;5096170;28;20033;-74
2023/09/27 03:22:56;;;;;;;0.60;0.60;;;12.50;99.90;;;;;;5096073;28;20055;-75
2023/09/27 03:25:22;;;;;;;1.10;1.00;;;12.40;99.90;;;;;;5094910;28;20383;-74
2023/09/27 03:27:48;;;;;;;1.83;0.70;;;12.40;99.90;;;;;;5096111;28;20115;-74
2023/09/27 03:30:14;;;;;;;0.83;0.83;;;12.30;99.90;;;;;;5096023;28;20101;-74
2023/09/27 03:32:40;;;;;;;0.60;0.60;;;12.30;99.90;;;;;;5095669;28;20118;-74
2023/09/27 03:35:07;;;;;;;0.85;0.82;;;12.30;99.90;;;;;;5095585;28;20067;-73
2023/09/27 03:37:34;;;;;;;1.25;1.00;;;12.30;99.90;;;;;;5096227;28;20040;-75
2023/09/27 03:40:01;;;;;;;0.60;0.60;;;12.30;99.90;;;;;;5095782;28;20043;-73
2023/09/27 03:42:26;;;;;;;0.63;0.63;;;12.30;99.90;;;;;;5095802;28;20036;-74
2023/09/27 03:44:54;;;;;;;0.70;0.70;;;12.60;99.90;;;;;;5095853;28;20038;-75
2023/09/27 03:47:20;;;;;;;0.60;0.60;;;12.30;99.90;;;;;;5094454;28;20549;-75
2023/09/27 03:49:45;;;;;;;0.90;0.90;;;12.20;99.90;;;;;;5094323;28;20123;-73
2023/09/27 03:52:11;;;;;;;0.80;0.80;;;12.20;99.90;;;;;;5095464;28;20075;-74
2023/09/27 03:54:37;;;;;;;0.77;0.77;;;12.20;99.90;;;;;;5095949;28;20491;-74
2023/09/27 03:57:02;;;;;;;0.60;0.60;;;12.20;99.90;;;;;;5095453;28;20036;-74
2023/09/27 03:59:28;;;;;;;0.60;0.60;;;12.20;99.90;;;;;;5095199;28;20097;-74
2023/09/27 04:01:55;;;;;;;0.60;0.60;;;12.20;99.90;;;;;;5095382;28;20059;-74
2023/09/27 04:04:21;;;;;;;2.63;0.85;;;12.20;99.90;;;;;;5095306;28;20040;-73
2023/09/27 04:06:49;;;;;;;3.03;1.03;;;12.20;99.90;;;;;;5095328;28;20073;-75
2023/09/27 04:09:14;;;;;;;0.60;0.60;;;12.20;99.90;;;;;;5095538;28;20052;-73
2023/09/27 04:11:40;;;;;;;0.67;0.67;;;12.10;99.90;;;;;;5095051;28;20487;-74
2023/09/27 04:14:05;;;;;;;0.70;0.70;;;12.10;99.90;;;;;;5095080;28;20166;-71
2023/09/27 04:16:32;;;;;;;1.35;1.13;;;12.10;99.90;;;;;;5095056;28;20512;-71
2023/09/27 04:18:58;;;;;;;1.10;1.00;;;12.10;99.90;;;;;;5094941;28;20040;-73
2023/09/27 04:21:25;;;;;;;0.80;0.80;;;12.10;99.90;;;;;;5095000;28;20048;-72
2023/09/27 04:23:55;;;;;;;1.05;0.95;;;12.10;99.90;;;;;;5095311;28;20040;-72
2023/09/27 04:26:21;;;;;;;1.40;1.15;;;12.00;99.90;;;;;;5095144;28;20040;-72
2023/09/27 04:28:47;;;;;;;1.30;0.63;;;12.00;99.90;;;;;;5094771;28;20494;-74
2023/09/27 04:31:13;;;;;;;2.30;1.08;;;12.40;99.90;;;;;;5094795;28;20032;-70
2023/09/27 04:33:41;;;;;;;1.35;1.25;;;11.90;99.90;;;;;;5094658;28;20476;-71
2023/09/27 04:36:06;;;;;;;0.85;0.82;;;11.90;99.90;;;;;;5095065;28;20046;-73
2023/09/27 04:38:32;;;;;;;1.30;1.03;;;11.90;99.90;;;;;;5094644;28;20040;-71
2023/09/27 04:40:58;;;;;;;0.80;0.80;;;11.90;99.90;;;;;;5094583;28;20348;-73
2023/09/27 04:43:23;;;;;;;1.38;1.23;;;11.90;99.90;;;;;;5094519;28;20047;-73
2023/09/27 04:45:51;;;;;;;0.80;0.80;;;12.00;99.90;;;;;;5094611;28;20204;-71
2023/09/27 04:48:17;;;;;;;1.40;1.10;;;12.40;99.90;;;;;;5094299;28;20047;-71
2023/09/27 04:50:44;;;;;;;2.13;0.98;;;12.20;99.90;;;;;;5094799;28;20475;-70
2023/09/27 04:53:09;;;;;;;0.70;0.70;;;11.90;99.90;;;;;;5094394;28;20050;-73
2023/09/27 04:55:35;;;;;;;1.58;1.33;;;11.90;99.90;;;;;;5094230;28;20403;-70
2023/09/27 04:58:01;;;;;;;0.70;0.70;;;11.90;99.90;;;;;;5094068;28;20051;-73
2023/09/27 05:00:27;;;;;;;1.38;1.27;;;11.90;99.90;;;;;;5094090;28;20472;-71
2023/09/27 05:02:52;;;;;;;0.80;0.77;;;11.90;99.90;;;;;;5094237;28;20044;-74
2023/09/27 05:05:18;;;;;;;0.80;0.80;;;11.90;99.90;;;;;;5094218;28;20090;-71
2023/09/27 05:07:44;;;;;;;1.08;0.90;;;11.80;99.90;;;;;;5094224;28;20472;-72
2023/09/27 05:10:09;;;;;;;1.05;0.70;;;11.80;99.90;;;;;;5094201;28;20085;-70
2023/09/27 05:12:35;;;;;;;0.80;0.80;;;11.80;99.90;;;;;;5094017;28;20043;-75
2023/09/27 05:15:00;;;;;;;0.93;0.80;;;11.80;99.90;;;;;;5094069;28;20379;-72
2023/09/27 05:17:26;;;;;;;0.70;0.70;;;11.80;99.90;;;;;;5093907;28;20066;-71
2023/09/27 05:19:53;;;;;;;1.38;0.85;;;11.80;99.90;;;;;;5094302;28;20499;-74
2023/09/27 05:22:19;;;;;;;;;;;11.80;99.90;;;;;;5094205;28;20051;-74
2023/09/27 05:24:46;;;;;;;0.70;0.70;;;11.70;99.90;;;;;;5093587;28;19915;-73
2023/09/27 05:27:12;;;;;;;0.93;0.70;;;11.80;99.90;;;;;;5093555;28;20074;-71
2023/09/27 05:29:37;;;;;;;0.70;0.70;;;11.90;99.90;;;;;;5093762;28;20036;-75
2023/09/27 05:32:03;;;;;;;0.70;0.70;;;11.80;99.90;;;;;;5093569;28;20028;-72
2023/09/27 05:34:30;;;;;;;0.80;0.80;;;11.70;99.90;;;;;;5093757;28;20379;-74
2023/09/27 05:36:57;;;;;;;0.80;0.80;;;11.80;99.90;;;;;;5093680;28;20490;-73
2023/09/27 05:39:22;;;;;;;0.70;0.70;;;11.80;99.90;;;;;;5093683;28;20063;-74
2023/09/27 05:41:48;;;;;;;0.63;0.63;;;11.70;99.90;;;;;;5093379;28;20475;-74
2023/09/27 05:44:14;;;;;;;0.70;0.70;;;11.70;99.90;;;;;;5093628;28;20044;-73
2023/09/27 05:46:44;;;;;;;0.70;0.70;;;11.80;99.90;;;;;;5093511;28;20063;-72
2023/09/27 05:49:11;;;;;;;0.70;0.60;;;12.00;99.90;;;;;;5093287;28;20040;-72
2023/09/27 05:51:37;;;;;;;0.70;0.70;;;11.90;99.90;;;;;;5093846;28;20032;-75
2023/09/27 05:54:05;;;;;;;0.70;0.70;;;11.90;99.90;;;;;;5093604;28;20035;-73
2023/09/27 05:56:32;;;;;;;0.50;0.50;;;12.00;99.90;;;;;;5093495;28;20432;-74
2023/09/27 05:58:59;;;;;;;0.68;0.68;;;12.00;99.90;;;;;;5093674;28;20043;-72
2023/09/27 06:01:25;;;;;;;0.70;0.70;;;12.00;99.90;;;;;;5093428;28;20040;-75
2023/09/27 06:03:51;;;;;;;1.05;0.95;;;12.10;99.90;;;;;;5093455;28;20113;-72
2023/09/27 06:06:17;;;;;;;0.77;0.77;;;12.20;99.90;;;;;;5091558;28;20467;-73
2023/09/27 06:08:42;;;;;;;1.25;0.80;;;12.40;99.90;;;;;;5092627;28;20063;-73
2023/09/27 06:11:09;;;;;;;0.50;0.50;;;12.20;99.90;;;;;;5096672;28;20043;-71
2023/09/27 06:13:36;;;;;;;1.20;1.02;;;12.30;99.90;;;;;;5117893;28;20384;-77
2023/09/27 06:16:02;;;;;;;1.08;0.93;;;12.30;99.90;;;;;;5116754;28;20057;-76
2023/09/27 06:18:28;;;;;;;1.08;0.98;;;12.40;99.90;;;;;;5117769;28;20473;-74
2023/09/27 06:20:53;;;;;;;0.60;0.60;;;12.40;99.90;;;;;;5117716;28;20035;-75
2023/09/27 06:23:19;;;;;;;0.60;0.60;;;12.50;99.90;;;;;;5117634;28;20039;-74
2023/09/27 06:25:46;;;;;;;0.77;0.77;;;12.60;99.90;;;;;;5117488;28;20039;-75
2023/09/27 06:28:13;;;;;;;1.23;1.00;;;12.60;99.90;;;;;;5117641;28;20050;-74
2023/09/27 06:30:42;;;;;;;1.15;1.05;;;12.70;99.90;;;;;;5117419;28;20094;-74
2023/09/27 06:33:12;;;;;;;0.50;0.50;;;12.80;99.90;;;;;;5117386;28;20035;-74
2023/09/27 06:35:38;;;;;;;0.70;0.70;;;12.90;99.90;;;;;;5117286;28;20126;-75
2023/09/27 06:38:05;;;;;;;0.95;0.88;;;12.90;99.90;;;;;;5117373;28;20082;-74
2023/09/27 06:40:31;;;;;;;1.30;1.02;;;13.00;99.90;;;;;;5116401;28;20044;-77
2023/09/27 06:42:57;;;;;;;0.50;0.50;;;13.00;99.90;;;;;;5117078;28;20075;-78
2023/09/27 06:45:23;;;;;;;0.77;0.77;;;13.10;99.90;;;;;;5117221;28;20086;-74
2023/09/27 06:47:49;;;;;;;1.02;0.80;;;13.20;99.90;;;;;;5117247;28;20035;-74
2023/09/27 06:50:17;;;;;;;1.60;1.50;;;13.20;99.90;;;;;;5117520;28;20360;-74
2023/09/27 06:52:45;;;;;;;1.38;1.15;;;13.20;99.90;;;;;;5117120;28;20114;-76
2023/09/27 06:55:12;;;;;;;1.38;1.20;;;13.30;99.90;;;;;;5117114;28;20152;-76
2023/09/27 06:57:44;;;;;;;0.80;0.80;;;13.30;99.90;;;;;;5117186;28;20329;-75
2023/09/27 07:00:18;;;;;;;1.73;1.20;;;13.40;99.90;;;;;;5117085;28;20046;-76
2023/09/27 07:02:47;;;;;;;1.42;1.10;;;13.40;99.90;;;;;;5117019;28;20044;-74
2023/09/27 07:05:13;;;;;;;0.73;0.70;;;13.40;99.90;;;;;;5116930;28;20044;-75
2023/09/27 07:07:40;;;;;;;0.73;0.70;;;13.50;99.90;;;;;;5116861;28;20058;-76
2023/09/27 07:10:06;;;;;;;2.22;1.92;;;13.50;99.90;;;;;;5117143;28;20478;-77
2023/09/27 07:12:33;;;;;;;2.17;1.13;;;13.60;99.90;;;;;;5116587;28;20040;-74
2023/09/27 07:14:59;;;;;;;2.03;1.08;;;13.60;99.90;;;;;;5098862;28;20035;-76
2023/09/27 07:17:25;;;;;;;1.40;1.27;;;13.70;99.90;;;;;;5116592;28;20352;-77
2023/09/27 07:19:53;;;;;;;1.85;1.48;;;13.80;99.90;;;;;;5116899;28;20040;-74
2023/09/27 07:22:19;;;;;;;1.35;0.95;;;13.90;99.90;;;;;;5114942;28;20031;-75
2023/09/27 07:24:44;;;;;;;0.87;0.70;;;13.90;99.90;;;;;;5114282;28;20122;-82
2023/09/27 07:27:10;;;;;;;3.57;2.07;;;14.00;99.90;;;;;;5116093;28;20121;-77
2023/09/27 07:29:36;;;;;;;1.03;1.00;;;14.10;99.90;;;;;;5116409;28;20039;-76
2023/09/27 07:32:02;;;;;;;0.65;0.60;;;14.20;99.90;;;;;;5115981;28;20059;-75
2023/09/27 07:34:28;;;;;;;1.75;1.33;;;14.20;99.90;;;;;;5116273;28;20471;-77
2023/09/27 07:36:54;;;;;;;0.60;0.60;;;14.30;99.90;;;;;;5116242;28;20046;-74
2023/09/27 07:39:20;;;;;;;0.70;0.70;;;14.40;99.90;;;;;;5115060;28;20039;-73
2023/09/27 07:41:46;;;;;;;1.48;0.88;;;14.50;99.90;;;;;;5116067;28;20528;-73
2023/09/27 07:44:12;;;;;;;2.57;0.90;;;14.60;99.90;;;;;;5116585;28;20047;-75
2023/09/27 07:46:38;;;;;;;1.40;0.90;;;14.70;99.90;;;;;;5116150;28;20086;-74
2023/09/27 07:49:04;;;;;;;2.40;1.07;;;14.70;99.90;;;;;;5116153;28;20071;-77
2023/09/27 07:51:29;;;;;;;3.30;1.27;;;14.80;99.90;;;;;;5115861;28;20036;-74
2023/09/27 07:53:55;;;;;;;1.83;1.70;;;14.90;99.90;;;;;;5116002;28;20378;-79
2023/09/27 07:56:26;;;;;;;1.53;1.43;;;14.90;99.90;;;;;;5115770;28;20136;-78
2023/09/27 07:58:53;;;;;;;2.85;1.02;;;15.00;99.90;;;;;;5115743;28;20348;-76
2023/09/27 08:01:22;;;;;;;;;;;15.10;99.90;;;;;;5114901;28;20040;-77
2023/09/27 08:03:49;;;;;;;1.35;1.20;;;15.20;99.90;;;;;;5115988;28;19915;-74
2023/09/27 08:06:16;;;;;;;;;;;15.30;99.90;;;;;;5116121;28;20036;-77
2023/09/27 08:08:42;;;;;;;0.63;0.63;;;15.30;99.90;;;;;;5115696;28;19916;-74
2023/09/27 08:11:11;;;;;;;1.35;0.93;;;15.30;99.90;;;;;;5114885;28;20050;-74
2023/09/27 08:13:37;;;;;;;1.17;0.82;;;15.40;99.90;;;;;;5115609;28;20096;-76
2023/09/27 08:16:06;;;;;;;0.70;0.70;;;15.50;99.90;;;;;;5115884;28;20039;-75
2023/09/27 08:18:33;;;;;;;1.00;0.88;;;15.50;99.90;;;;;;5115582;28;20039;-76
2023/09/27 08:21:02;;;;;;;1.17;1.10;;;15.50;99.90;;;;;;5115445;28;20089;-75
2023/09/27 08:23:28;;;;;;;2.15;1.25;;;15.50;99.90;;;;;;5115337;28;20039;-76
2023/09/27 08:25:53;;;;;;;1.20;1.10;;;15.60;99.90;;;;;;5115227;28;20043;-75
2023/09/27 08:28:22;;;;;;;1.33;1.23;;;15.60;99.90;;;;;;5115091;28;20058;-75
2023/09/27 08:30:48;;;;;;;1.30;1.15;;;15.60;99.90;;;;;;5115147;27;20032;-76
2023/09/27 08:33:14;;;;;;;0.83;0.83;;;15.70;99.90;;;;;;5115481;28;20047;-75
2023/09/27 08:35:40;;;;;;;1.60;1.10;;;15.70;99.90;;;;;;5114474;28;20471;-76
2023/09/27 08:38:06;;;;;;;0.98;0.90;;;15.80;99.90;;;;;;5115093;28;20039;-73
2023/09/27 08:40:31;;;;;;;1.10;0.70;;;15.90;99.90;;;;;;5114965;28;20494;-75
2023/09/27 08:42:59;;;;;;;0.90;0.90;;;16.00;99.90;;;;;;5115479;28;20039;-76
2023/09/27 08:45:26;;;;;;;0.80;0.75;;;16.10;99.90;;;;;;5114935;28;20051;-76
2023/09/27 08:47:52;;;;;;;;;;;16.20;99.90;;;;;;5115181;28;20051;-76
2023/09/27 08:50:19;;;;;;;1.50;0.85;;;16.30;99.90;;;;;;5114914;28;20002;-75
2023/09/27 08:52:46;;;;;;;1.50;1.27;;;16.40;99.90;;;;;;5114574;28;20053;-75
2023/09/27 08:55:15;;;;;;;1.02;0.80;;;16.50;99.90;;;;;;5115051;28;20050;-75
2023/09/27 08:58:00;;;;;;;1.45;1.08;;;16.70;99.90;;;;;;5115128;28;20043;-75
2023/09/27 09:00:26;;;;;;;1.73;0.80;;;16.80;99.90;;;;;;5114943;28;20048;-75
2023/09/27 09:03:00;;;;;;;1.40;1.30;;;16.90;99.90;;;;;;5114681;28;20043;-75
2023/09/27 09:05:27;;;;;;;1.65;0.95;;;17.00;99.90;;;;;;5114556;28;20039;-76
2023/09/27 09:07:55;;;;;;;0.82;0.82;;;17.10;99.90;;;;;;5114479;28;20055;-74
2023/09/27 09:10:22;;;;;;;0.70;0.70;;;17.30;99.90;;;;;;5114834;28;20387;-76
2023/09/27 09:12:49;;;;;;;0.70;0.70;;;17.50;99.90;;;;;;5114614;27;20046;-74
2023/09/27 09:15:40;;;;;;;0.93;0.82;;;17.60;99.90;;;;;;5114452;28;20059;-76
2023/09/27 09:18:06;;;;;;;2.85;1.00;;;17.80;99.90;;;;;;5114100;28;20051;-74
2023/09/27 09:20:48;;;;;;;2.03;1.23;;;17.80;99.90;;;;;;5114316;28;20093;-75
2023/09/27 09:23:34;;;;;;;1.08;1.00;;;17.90;99.90;;;;;;5114323;28;20039;-77
2023/09/27 09:26:01;;;;;;;0.93;0.90;;;18.00;99.90;;;;;;5114238;28;20118;-76
2023/09/27 09:28:27;;;;;;;0.38;0.38;;;18.20;99.90;;;;;;5114232;28;20040;-76
2023/09/27 09:30:55;;;;;;;0.97;0.90;;;18.40;99.90;;;;;;5114422;28;20122;-75
2023/09/27 09:33:24;;;;;;;0.57;0.57;;;18.60;99.90;;;;;;5114552;28;20040;-75
2023/09/27 09:35:51;;;;;;;2.60;1.13;;;18.80;99.90;;;;;;5114165;28;20081;-75
2023/09/27 09:38:33;;;;;;;0.50;0.40;;;19.00;99.90;;;;;;5114097;28;20082;-75
2023/09/27 09:41:00;;;;;;;0.50;0.50;;;19.10;99.90;;;;;;5114097;28;20114;-76
2023/09/27 09:43:31;;;;;;;0.60;0.60;;;19.30;99.90;;;;;;5114018;28;20035;-74
2023/09/27 09:45:57;;;;;;;1.63;1.38;;;19.30;99.90;;;;;;5113083;28;20467;-77
2023/09/27 09:48:23;;;;;;;1.50;1.02;;;19.40;99.90;;;;;;5114167;28;20063;-75
2023/09/27 09:50:49;;;;;;;2.38;0.90;;;19.40;99.90;;;;;;5113908;28;20548;-75
2023/09/27 09:53:16;;;;;;;0.70;0.70;;;19.50;99.90;;;;;;5113908;28;20050;-76
2023/09/27 09:55:42;;;;;;;;;;;19.60;99.90;;;;;;5113202;28;20127;-77
2023/09/27 09:58:20;;;;;;;0.75;0.60;;;19.70;99.90;;;;;;5114366;28;19981;-77
2023/09/27 10:00:52;;;;;;;0.98;0.90;;;19.70;99.90;;;;;;5114216;28;20028;-78
2023/09/27 10:03:20;;;;;;;0.32;0.32;;;19.70;99.90;;;;;;5114177;28;20118;-76
2023/09/27 10:05:50;;;;;;;0.47;0.40;;;19.70;99.90;;;;;;5113759;28;20036;-74
2023/09/27 10:08:18;;;;;;;0.60;0.60;;;19.70;99.90;;;;;;5113209;28;20044;-77
2023/09/27 10:10:44;;;;;;;1.10;0.80;;;19.70;99.90;;;;;;5112606;28;20439;-76
2023/09/27 10:13:10;;;;;;;0.80;0.70;;;19.70;99.90;;;;;;5113727;28;20212;-74
2023/09/27 10:15:38;;;;;;;1.27;0.95;;;19.60;99.90;;;;;;5113680;28;20043;-76
2023/09/27 10:18:22;;;;;;;0.95;0.73;;;19.70;99.90;;;;;;5112428;28;20069;-77
2023/09/27 10:21:05;;;;;;;0.90;0.60;;;19.80;99.90;;;;;;5113598;28;20420;-75
2023/09/27 10:24:00;;;;;;;0.50;0.50;;;19.90;99.90;;;;;;5114174;28;20370;-75
2023/09/27 10:26:31;;;;;;;2.17;1.48;;;20.10;99.90;;;;;;5113826;28;20051;-77
2023/09/27 10:29:15;;;;;;;0.73;0.73;;;20.20;99.90;;;;;;5113526;28;20043;-75
2023/09/27 10:32:00;;;;;;;6.30;1.23;;;20.30;99.90;;;;;;5114029;28;20390;-76
2023/09/27 10:34:28;;;;;;;1.02;0.95;;;20.30;99.90;;;;;;5114029;28;20433;-76
2023/09/27 10:36:55;;;;;;;1.52;1.13;;;20.30;99.90;;;;;;5113494;28;20046;-77
2023/09/27 10:39:21;;;;;;;1.33;1.00;;;20.30;99.90;;;;;;5113526;28;20043;-75
2023/09/27 10:41:49;;;;;;;1.13;0.60;;;20.30;99.90;;;;;;5113503;28;20032;-76
2023/09/27 10:44:31;;;;;;;1.25;0.98;;;20.40;99.90;;;;;;5113532;28;20387;-76
2023/09/27 10:46:59;;;;;;;0.60;0.60;;;20.50;99.90;;;;;;5113768;28;20051;-75
2023/09/27 10:49:27;;;;;;;0.60;0.60;;;20.60;99.90;;;;;;5112463;28;20043;-77
2023/09/27 10:51:54;;;;;;;1.42;0.80;;;20.60;99.90;;;;;;5113267;28;20123;-76
2023/09/27 10:54:26;;;;;;;1.67;0.93;;;20.60;99.90;;;;;;5113467;28;20040;-74
2023/09/27 10:56:53;;;;;;;2.20;1.25;;;20.70;99.90;;;;;;5113586;28;20121;-76
2023/09/27 10:59:28;;;;;;;0.55;0.50;;;20.80;99.90;;;;;;5116999;28;20043;-77
2023/09/27 11:01:55;;;;;;;1.55;1.25;;;20.90;99.90;;;;;;5117217;28;20144;-76
2023/09/27 11:04:25;;;;;;;1.20;1.08;;;21.00;99.90;;;;;;5117144;28;20082;-76
2023/09/27 11:06:51;;;;;;;0.50;0.50;;;21.10;99.90;;;;;;5116942;27;20786;-74
2023/09/27 11:09:20;;;;;;;0.57;0.52;;;21.10;99.90;;;;;;5117310;28;20048;-76
2023/09/27 11:11:47;;;;;;;0.70;0.70;;;21.20;99.90;;;;;;5116721;28;20035;-75
2023/09/27 11:14:33;;;;;;;0.77;0.77;;;21.20;99.90;;;;;;5116719;28;20039;-76
2023/09/27 11:17:22;;;;;;;0.63;0.63;;;21.20;99.90;;;;;;5116766;28;20047;-75
2023/09/27 11:19:52;;;;;;;0.57;0.57;;;21.10;99.90;;;;;;5117079;28;20042;-75
2023/09/27 11:22:27;;;;;;;0.98;0.70;;;21.10;99.90;;;;;;5116618;28;20479;-76
2023/09/27 11:24:53;;;;;;;0.73;0.73;;;21.10;99.90;;;;;;5116379;28;20057;-76
2023/09/27 11:27:19;;;;;;;0.40;0.40;;;21.10;99.90;;;;;;5116413;28;20039;-75
2023/09/27 11:29:52;;;;;;;;;;;21.20;99.90;;;;;;5116856;27;20035;-74
2023/09/27 11:32:18;;;;;;;2.00;0.95;;;21.30;99.90;;;;;;5116393;28;19915;-76
2023/09/27 11:34:54;;;;;;;0.57;0.47;;;21.30;99.90;;;;;;5116408;27;20127;-74
2023/09/27 11:37:20;;;;;;;0.50;0.50;;;21.30;99.90;;;;;;5116201;27;20074;-76
2023/09/27 11:39:50;;;;;;;1.03;0.93;;;21.40;99.90;;;;;;5115444;28;20082;-75
2023/09/27 11:42:26;;;;;;;0.70;0.55;;;21.40;99.90;;;;;;5116220;28;20086;-75
2023/09/27 11:45:04;;;;;;;0.57;0.50;;;21.40;99.90;;;;;;5116206;28;20047;-77
2023/09/27 11:47:30;;;;;;;0.40;0.40;;;21.40;99.90;;;;;;5116236;28;20344;-75
2023/09/27 11:49:56;;;;;;;0.35;0.35;;;21.50;99.90;;;;;;5116070;28;20043;-76
2023/09/27 11:52:23;;;;;;;0.30;0.30;;;21.60;99.90;;;;;;5116085;28;20039;-77
2023/09/27 11:54:49;;;;;;;0.57;0.57;;;21.70;99.90;;;;;;5115900;28;20039;-77
2023/09/27 11:57:17;;;;;;;0.47;0.43;;;21.80;99.90;;;;;;5116381;28;20044;-76
2023/09/27 11:59:42;;;;;;;1.20;0.70;;;21.90;99.90;;;;;;5116125;28;20046;-76
2023/09/27 12:02:08;;;;;;;0.43;0.43;;;22.00;99.90;;;;;;5115843;28;20036;-76
2023/09/27 12:04:34;;;;;;;0.47;0.35;;;22.00;99.90;;;;;;5116015;28;20437;-74
2023/09/27 12:07:00;;;;;;;0.70;0.60;;;22.10;99.90;;;;;;5115755;27;20051;-73
2023/09/27 12:09:25;;;;;;;0.50;0.50;;;22.10;99.90;;;;;;5114419;28;20043;-76
2023/09/27 12:11:51;;;;;;;0.37;0.37;;;22.00;99.90;;;;;;5115929;28;20092;-72
2023/09/27 12:14:16;;;;;;;0.97;0.90;;;22.00;99.90;;;;;;5115729;28;20036;-78
2023/09/27 12:16:42;;;;;;;0.73;0.73;;;21.90;99.90;;;;;;5115517;28;20122;-76
2023/09/27 12:19:09;;;;;;;0.47;0.40;;;21.80;99.90;;;;;;5115698;28;20035;-75
2023/09/27 12:21:35;;;;;;;0.73;0.50;;;21.80;99.90;;;;;;5115424;28;20471;-74
2023/09/27 12:24:02;;;;;;;;;;;21.80;99.90;;;;;;5115692;28;20039;-75
2023/09/27 12:26:29;;;;;;;0.57;0.50;;;21.70;99.90;;;;;;5115360;28;19915;-74
2023/09/27 12:28:56;;;;;;;0.90;0.50;;;21.70;99.90;;;;;;5115213;27;20138;-74
2023/09/27 12:31:22;;;;;;;0.65;0.52;;;21.70;99.90;;;;;;5115290;28;20050;-76
2023/09/27 12:33:47;;;;;;;0.60;0.60;;;21.60;99.90;;;;;;5115264;28;20122;-75
2023/09/27 12:36:13;;;;;;;0.40;0.40;;;21.60;99.90;;;;;;5115142;28;20661;-74
2023/09/27 12:38:39;;;;;;;0.73;0.73;;;21.70;99.90;;;;;;5114743;28;20486;-74
2023/09/27 12:41:07;;;;;;;0.60;0.60;;;21.60;99.90;;;;;;5113849;28;20390;-73
2023/09/27 12:43:33;;;;;;;0.68;0.68;;;21.70;99.90;;;;;;5115083;28;20395;-76
2023/09/27 12:46:01;;;;;;;0.50;0.50;;;21.80;99.90;;;;;;5114987;28;20043;-75
2023/09/27 12:48:27;;;;;;;0.55;0.55;;;21.90;99.90;;;;;;5114833;28;20046;-75